Aviation Digital Data Service (ADDS)

Output produced by METARs form (0948 UTC 31 October 2014)
found at http://www.aviationweather.gov/adds/metars/
 
KBFD 310853Z AUTO 00000KT 10SM OVC041 02/01 A2996 RMK AO2 SLP155 T00220011 58009
KBFD 310753Z AUTO 00000KT 10SM OVC040 03/01 A2996 RMK AO2 SLP158 T00280011
KBFD 310653Z AUTO 00000KT 10SM OVC041 03/01 A2998 RMK AO2 SLP162 T00280011
KBFD 310553Z AUTO 00000KT 10SM OVC039 03/01 A2998 RMK AO2 SLP164 T00280011 10033 20011 58009
KBFD 310453Z AUTO 00000KT 10SM OVC037 03/01 A3000 RMK AO2 SLP170 T00280011 400720011
KBFD 310353Z AUTO 00000KT 10SM OVC035 03/01 A3000 RMK AO2 SLP171 T00280011
KBFD 310253Z AUTO 00000KT 10SM OVC033 03/01 A3001 RMK AO2 SLP175 T00280011 58004
KBFD 310234Z AUTO 00000KT 10SM FEW025 OVC030 03/01 A3001 RMK AO2 T00280006
KBFD 310153Z AUTO 00000KT 10SM SCT020 OVC026 02/00 A3002 RMK AO2 SLP178 T00170000
KBFD 310102Z AUTO 00000KT 10SM BKN023 01/M01 A3002 RMK AO2 T00111006
KBFD 310053Z AUTO 00000KT 10SM SCT025 01/M01 A3002 RMK AO2 SLP180 T00111011
KBFD 302353Z AUTO 00000KT 10SM SCT038 03/M01 A3003 RMK AO2 SLP180 T00331006 10072 20033 50002
KBFD 302253Z AUTO 34003KT 10SM OVC038 05/00 A3004 RMK AO2 SLP182 T00500000
KBFD 302153Z AUTO 31006KT 10SM OVC035 06/01 A3003 RMK AO2 SLP178 T00560006
KBFD 302053Z AUTO 32006KT 10SM OVC037 06/01 A3002 RMK AO2 SLP176 T00610006 56003
KBFD 302026Z AUTO 29005KT 10SM OVC035 06/01 A3002 RMK AO2 T00610006
KBFD 301953Z AUTO 30007KT 10SM OVC028 06/01 A3002 RMK AO2 SLP176 T00610006
KBFD 301919Z AUTO 30007KT 10SM SCT029 OVC035 07/01 A3002 RMK AO2 T00670006
KBFD 301853Z AUTO 29006KT 10SM OVC029 06/01 A3003 RMK AO2 SLP177 T00610011
KBFD 301839Z AUTO 29007KT 10SM OVC029 06/00 A3002 RMK AO2 T00610000
KBFD 301753Z AUTO 28006KT 10SM FEW023 OVC034 07/03 A3003 RMK AO2 RAE16 SLP179 P0000 60001 T00720028 10072 20039 58006
KBFD 301751Z AUTO VRB04KT 10SM FEW023 SCT029 OVC034 07/02 A3003 RMK AO2 RAE16 P0000
KBFD 301653Z AUTO 31007KT 5SM -RA FEW013 BKN020 OVC024 05/02 A3005 RMK AO2 RAB03 SLP188 P0001 T00500022
KBFD 301553Z AUTO 31012G17KT 10SM BKN022 OVC027 06/01 A3005 RMK AO2 SLP185 T00560011
KBFD 301453Z AUTO 31007KT 10SM BKN021 OVC029 05/01 A3005 RMK AO2 SLP184 60000 T00500011 51009
KBFD 301430Z AUTO 30009KT 10SM OVC030 06/02 A3005 RMK AO2 T00560017
KBFD 301420Z AUTO 31009KT 10SM OVC029 06/02 A3005 RMK AO2 T00560022
KBFD 301353Z AUTO 31010KT 10SM FEW011 OVC030 05/02 A3004 RMK AO2 SLP182 T00500017
KBFD 301303Z AUTO 31007KT 10SM FEW009 SCT015 BKN030 04/02 A3004 RMK AO2 T00390022
KBFD 301255Z AUTO 31005KT 10SM SCT015 OVC030 04/02 A3004 RMK AO2 T00390022
KBFD 301253Z AUTO 31005KT 10SM BKN013 BKN028 OVC033 04/02 A3004 RMK AO2 RAE01 SLP181 P0000 T00390022
KBFD 301237Z AUTO 29006KT 10SM FEW007 OVC013 04/02 A3004 RMK AO2 RAE01 P0000 T00390022
KBFD 301217Z AUTO 28006KT 10SM SCT015 BKN021 OVC037 04/02 A3003 RMK AO2 RAE01 P0000 T00390022
KBFD 301204Z AUTO 29005KT 10SM FEW016 SCT022 OVC037 04/02 A3002 RMK AO2 RAE01 P0000 T00390022
KBFD 301153Z AUTO VRB03KT 8SM -RA FEW011 BKN022 OVC037 04/02 A3002 RMK AO2 RAB03E14B48 SLP174 P0000 60000 70007 T00390022 10044 20039 51011
KBFD 301128Z AUTO 30006KT 10SM FEW009 BKN020 04/02 A3002 RMK AO2 RAB03E14 P0000 T00390017
KBFD 301053Z AUTO 30005KT 10SM FEW009 BKN013 OVC024 04/02 A3001 RMK AO2 SLP172 T00390022
KBFD 301010Z AUTO 28005KT 10SM SCT008 BKN013 OVC032 04/02 A3001 RMK AO2 T00390022
KBFD 301000Z AUTO 27005KT 10SM BKN009 BKN013 OVC024 04/03 A3000 RMK AO2 CIG 006V011 T00440028
KBFD 300953Z AUTO 28006KT 10SM SCT009 BKN013 OVC024 04/03 A3000 RMK AO2 SLP165 T00440028
KBFD 300944Z AUTO 28004KT 10SM FEW007 BKN014 OVC023 04/03 A3000 RMK AO2 T00440028
KBFD 300933Z AUTO 29005KT 10SM BKN009 OVC014 04/03 A2999 RMK AO2 CIG 006V011 T00440028
KBFD 300924Z AUTO 28004KT 10SM SCT009 OVC016 04/03 A2999 RMK AO2 T00440028
KBFD 300907Z AUTO 29005KT 10SM BKN008 BKN013 OVC019 04/03 A2999 RMK AO2 CIG 004V011 T00440028
KBFD 300853Z AUTO 26004KT 8SM SCT008 BKN013 OVC022 04/03 A2999 RMK AO2 SLP161 T00390028 53000
KBFD 300843Z AUTO 27004KT 10SM FEW008 BKN013 OVC027 04/03 A2998 RMK AO2 T00440028
KBFD 300836Z AUTO 26003KT 10SM BKN013 BKN025 OVC031 04/03 A2998 RMK AO2 T00440028
KBFD 300827Z AUTO 27005KT 10SM FEW016 BKN026 OVC033 04/03 A2998 RMK AO2 T00440028
KBFD 300753Z AUTO 00000KT 10SM BKN031 OVC050 04/03 A2998 RMK AO2 SLP159 T00440028
KBFD 300653Z AUTO 26003KT 10SM BKN040 OVC050 04/03 A2998 RMK AO2 SLP158 T00440028
KBFD 300620Z AUTO 00000KT 10SM FEW013 FEW025 OVC038 04/03 A2998 RMK AO2 T00390028
KBFD 300553Z AUTO 28003KT 10SM FEW012 BKN028 OVC034 04/02 A2998 RMK AO2 RAB0458E47 SLP161 P0004 60007 T00390022 10078 20039 51001
KBFD 300548Z AUTO 29003KT 10SM SCT012 BKN028 OVC034 04/02 A2998 RMK AO2 RAB0458E47 P0004
KBFD 300453Z AUTO 31005KT 9SM OVC012 04/02 A2998 RMK AO2 RAB22E46 SLP161 P0003 T00390022 401110039
KBFD 300444Z AUTO 33007KT 9SM -RA SCT008 OVC014 04/02 A2998 RMK AO2 RAB22 P0003 T00390022
KBFD 300427Z AUTO 30009KT 5SM -RA BR OVC008 04/03 A2999 RMK AO2 RAB22 CIG 006V013 P0000 T00440028
KBFD 300353Z AUTO 27006KT 10SM OVC011 05/03 A2998 RMK AO2 SLP160 T00500028
KBFD 300314Z AUTO 27008KT 10SM BKN014 BKN024 OVC040 06/03 A2998 RMK AO2 T00560028
KBFD 300300Z AUTO 26004KT 10SM FEW010 BKN031 OVC040 05/03 A2998 RMK AO2 T00500028
KBFD 300253Z AUTO 26005KT 10SM SCT012 BKN017 OVC039 06/03 A2998 RMK AO2 RAB30E43 SLP159 P0000 60000 T00560028 53007
KBFD 300153Z AUTO 31009KT 10SM BKN024 BKN029 OVC035 07/02 A2997 RMK AO2 SLP156 T00670017
KBFD 300130Z AUTO 30008KT 10SM BKN026 OVC046 07/01 A2997 RMK AO2 T00720011
KBFD 300053Z AUTO 28012G18KT 10SM FEW027 OVC060 07/01 A2996 RMK AO2 SLP152 T00720011
KBFD 292353Z AUTO 29008KT 10SM SCT032 OVC048 08/02 A2996 RMK AO2 SLP152 T00780022 10111 20078 53015
KBFD 292253Z AUTO 31007KT 10SM FEW037 BKN047 OVC055 08/02 A2994 RMK AO2 SLP145 T00830017
KBFD 292153Z AUTO 28006KT 10SM SCT042 OVC050 09/00 A2992 RMK AO2 SLP136 T00940000